sensor_id;sensor_type;location;lat;lon;timestamp;temperature;humidity
7174;DHT22;3628;48.654;8.932;2022-07-22T00:00:30;21.20;99.90
7174;DHT22;3628;48.654;8.932;2022-07-22T00:02:55;21.00;99.90
7174;DHT22;3628;48.654;8.932;2022-07-22T00:05:21;20.80;99.90
7174;DHT22;3628;48.654;8.932;2022-07-22T00:07:47;20.70;99.90
7174;DHT22;3628;48.654;8.932;2022-07-22T00:10:12;20.70;99.90
7174;DHT22;3628;48.654;8.932;2022-07-22T00:12:38;20.80;99.90
7174;DHT22;3628;48.654;8.932;2022-07-22T00:15:05;20.60;99.90
7174;DHT22;3628;48.654;8.932;2022-07-22T00:17:31;20.40;99.90
7174;DHT22;3628;48.654;8.932;2022-07-22T00:19:57;20.20;99.90
7174;DHT22;3628;48.654;8.932;2022-07-22T00:22:23;20.20;99.90
7174;DHT22;3628;48.654;8.932;2022-07-22T00:24:49;20.20;99.90
7174;DHT22;3628;48.654;8.932;2022-07-22T00:27:15;20.20;99.90
7174;DHT22;3628;48.654;8.932;2022-07-22T00:29:40;20.20;99.90
7174;DHT22;3628;48.654;8.932;2022-07-22T00:32:06;20.00;99.90
7174;DHT22;3628;48.654;8.932;2022-07-22T00:34:31;19.80;99.90
7174;DHT22;3628;48.654;8.932;2022-07-22T00:36:57;19.90;99.90
7174;DHT22;3628;48.654;8.932;2022-07-22T00:39:23;19.80;99.90
7174;DHT22;3628;48.654;8.932;2022-07-22T00:41:49;19.90;99.90
7174;DHT22;3628;48.654;8.932;2022-07-22T00:44:14;19.90;99.90
7174;DHT22;3628;48.654;8.932;2022-07-22T00:46:40;19.80;99.90
7174;DHT22;3628;48.654;8.932;2022-07-22T00:49:07;19.60;99.90
7174;DHT22;3628;48.654;8.932;2022-07-22T00:51:34;19.50;99.90
7174;DHT22;3628;48.654;8.932;2022-07-22T00:54:00;19.50;99.90
7174;DHT22;3628;48.654;8.932;2022-07-22T00:56:27;19.50;99.90
7174;DHT22;3628;48.654;8.932;2022-07-22T00:58:55;19.70;99.90
7174;DHT22;3628;48.654;8.932;2022-07-22T01:01:21;19.70;99.90
7174;DHT22;3628;48.654;8.932;2022-07-22T01:03:47;19.70;99.90
7174;DHT22;3628;48.654;8.932;2022-07-22T01:06:13;19.60;99.90
7174;DHT22;3628;48.654;8.932;2022-07-22T01:08:39;19.50;99.90
7174;DHT22;3628;48.654;8.932;2022-07-22T01:11:13;19.50;99.90
7174;DHT22;3628;48.654;8.932;2022-07-22T01:13:39;19.60;99.90
7174;DHT22;3628;48.654;8.932;2022-07-22T01:16:07;19.60;99.90
7174;DHT22;3628;48.654;8.932;2022-07-22T01:18:33;19.70;99.90
7174;DHT22;3628;48.654;8.932;2022-07-22T01:20:59;19.70;99.90
7174;DHT22;3628;48.654;8.932;2022-07-22T01:23:25;19.80;99.90
7174;DHT22;3628;48.654;8.932;2022-07-22T01:25:51;19.70;99.90
7174;DHT22;3628;48.654;8.932;2022-07-22T01:28:16;19.60;99.90
7174;DHT22;3628;48.654;8.932;2022-07-22T01:30:42;19.30;99.90
7174;DHT22;3628;48.654;8.932;2022-07-22T01:33:08;19.30;99.90
7174;DHT22;3628;48.654;8.932;2022-07-22T01:35:33;19.40;99.90
7174;DHT22;3628;48.654;8.932;2022-07-22T01:37:59;19.30;99.90
7174;DHT22;3628;48.654;8.932;2022-07-22T01:40:25;19.50;99.90
7174;DHT22;3628;48.654;8.932;2022-07-22T01:42:50;19.40;99.90
7174;DHT22;3628;48.654;8.932;2022-07-22T01:45:16;19.40;99.90
7174;DHT22;3628;48.654;8.932;2022-07-22T01:47:41;19.50;99.90
7174;DHT22;3628;48.654;8.932;2022-07-22T01:50:09;19.60;99.90
7174;DHT22;3628;48.654;8.932;2022-07-22T01:52:35;19.60;99.90
7174;DHT22;3628;48.654;8.932;2022-07-22T01:55:02;19.50;99.90
7174;DHT22;3628;48.654;8.932;2022-07-22T01:57:28;19.60;99.90
7174;DHT22;3628;48.654;8.932;2022-07-22T01:59:53;19.80;99.90
7174;DHT22;3628;48.654;8.932;2022-07-22T02:02:19;19.50;99.90
7174;DHT22;3628;48.654;8.932;2022-07-22T02:04:45;19.40;99.90
7174;DHT22;3628;48.654;8.932;2022-07-22T02:07:10;19.20;99.90
7174;DHT22;3628;48.654;8.932;2022-07-22T02:09:36;19.10;99.90
7174;DHT22;3628;48.654;8.932;2022-07-22T02:12:02;19.30;99.90
7174;DHT22;3628;48.654;8.932;2022-07-22T02:14:27;19.30;99.90
7174;DHT22;3628;48.654;8.932;2022-07-22T02:16:54;19.30;99.90
7174;DHT22;3628;48.654;8.932;2022-07-22T02:19:20;19.20;99.90
7174;DHT22;3628;48.654;8.932;2022-07-22T02:21:45;19.10;99.90
7174;DHT22;3628;48.654;8.932;2022-07-22T02:24:11;19.00;99.90
7174;DHT22;3628;48.654;8.932;2022-07-22T02:26:37;19.00;99.90
7174;DHT22;3628;48.654;8.932;2022-07-22T02:29:03;19.10;99.90
7174;DHT22;3628;48.654;8.932;2022-07-22T02:31:29;19.20;99.90
7174;DHT22;3628;48.654;8.932;2022-07-22T02:33:54;19.20;99.90
7174;DHT22;3628;48.654;8.932;2022-07-22T02:36:20;19.10;99.90
7174;DHT22;3628;48.654;8.932;2022-07-22T02:38:45;19.10;99.90
7174;DHT22;3628;48.654;8.932;2022-07-22T02:41:11;19.30;99.90
7174;DHT22;3628;48.654;8.932;2022-07-22T02:43:36;19.10;99.90
7174;DHT22;3628;48.654;8.932;2022-07-22T02:46:02;18.80;99.90
7174;DHT22;3628;48.654;8.932;2022-07-22T02:48:28;18.80;99.90
7174;DHT22;3628;48.654;8.932;2022-07-22T02:50:54;18.70;99.90
7174;DHT22;3628;48.654;8.932;2022-07-22T02:53:19;18.60;99.90
7174;DHT22;3628;48.654;8.932;2022-07-22T02:55:45;18.40;99.90
7174;DHT22;3628;48.654;8.932;2022-07-22T02:58:11;18.40;99.90
7174;DHT22;3628;48.654;8.932;2022-07-22T03:00:37;18.30;99.90
7174;DHT22;3628;48.654;8.932;2022-07-22T03:03:05;18.20;99.90
7174;DHT22;3628;48.654;8.932;2022-07-22T03:05:31;18.40;99.90
7174;DHT22;3628;48.654;8.932;2022-07-22T03:07:57;18.50;99.90
7174;DHT22;3628;48.654;8.932;2022-07-22T03:10:22;18.40;99.90
7174;DHT22;3628;48.654;8.932;2022-07-22T03:12:48;18.30;99.90
7174;DHT22;3628;48.654;8.932;2022-07-22T03:15:13;18.40;99.90
7174;DHT22;3628;48.654;8.932;2022-07-22T03:17:39;18.40;99.90
7174;DHT22;3628;48.654;8.932;2022-07-22T03:20:07;18.50;99.90
7174;DHT22;3628;48.654;8.932;2022-07-22T03:22:33;18.60;99.90
7174;DHT22;3628;48.654;8.932;2022-07-22T03:24:59;18.70;99.90
7174;DHT22;3628;48.654;8.932;2022-07-22T03:27:25;18.50;99.90
7174;DHT22;3628;48.654;8.932;2022-07-22T03:29:51;18.20;99.90
7174;DHT22;3628;48.654;8.932;2022-07-22T03:32:16;18.10;99.90
7174;DHT22;3628;48.654;8.932;2022-07-22T03:34:42;17.90;99.90
7174;DHT22;3628;48.654;8.932;2022-07-22T03:37:08;17.70;99.90
7174;DHT22;3628;48.654;8.932;2022-07-22T03:39:33;17.80;99.90
7174;DHT22;3628;48.654;8.932;2022-07-22T03:41:59;18.00;99.90
7174;DHT22;3628;48.654;8.932;2022-07-22T03:44:25;18.20;99.90
7174;DHT22;3628;48.654;8.932;2022-07-22T03:46:51;18.50;99.90
7174;DHT22;3628;48.654;8.932;2022-07-22T03:49:16;18.80;99.90
7174;DHT22;3628;48.654;8.932;2022-07-22T03:51:42;18.80;99.90
7174;DHT22;3628;48.654;8.932;2022-07-22T03:54:08;19.00;99.90
7174;DHT22;3628;48.654;8.932;2022-07-22T03:56:34;18.80;99.90
7174;DHT22;3628;48.654;8.932;2022-07-22T03:59:00;18.50;99.90
7174;DHT22;3628;48.654;8.932;2022-07-22T04:01:25;18.40;99.90
7174;DHT22;3628;48.654;8.932;2022-07-22T04:03:51;18.30;99.90
7174;DHT22;3628;48.654;8.932;2022-07-22T04:06:17;18.30;99.90
7174;DHT22;3628;48.654;8.932;2022-07-22T04:08:43;18.50;99.90
7174;DHT22;3628;48.654;8.932;2022-07-22T04:11:09;18.50;99.90
7174;DHT22;3628;48.654;8.932;2022-07-22T04:13:34;18.40;99.90
7174;DHT22;3628;48.654;8.932;2022-07-22T04:16:00;18.50;99.90
7174;DHT22;3628;48.654;8.932;2022-07-22T04:18:25;18.60;99.90
7174;DHT22;3628;48.654;8.932;2022-07-22T04:20:51;18.90;99.90
7174;DHT22;3628;48.654;8.932;2022-07-22T04:23:17;18.60;99.90
7174;DHT22;3628;48.654;8.932;2022-07-22T04:25:42;18.50;99.90
7174;DHT22;3628;48.654;8.932;2022-07-22T04:28:08;18.40;99.90
7174;DHT22;3628;48.654;8.932;2022-07-22T04:30:34;18.30;99.90
7174;DHT22;3628;48.654;8.932;2022-07-22T04:32:59;18.30;99.90
7174;DHT22;3628;48.654;8.932;2022-07-22T04:35:25;18.30;99.90
7174;DHT22;3628;48.654;8.932;2022-07-22T04:37:50;18.30;99.90
7174;DHT22;3628;48.654;8.932;2022-07-22T04:40:16;18.20;99.90
7174;DHT22;3628;48.654;8.932;2022-07-22T04:42:42;18.10;99.90
7174;DHT22;3628;48.654;8.932;2022-07-22T04:45:08;18.20;99.90
7174;DHT22;3628;48.654;8.932;2022-07-22T04:47:34;18.20;99.90
7174;DHT22;3628;48.654;8.932;2022-07-22T04:49:59;18.20;99.90
7174;DHT22;3628;48.654;8.932;2022-07-22T04:52:25;18.30;99.90
7174;DHT22;3628;48.654;8.932;2022-07-22T04:54:51;18.60;99.90
7174;DHT22;3628;48.654;8.932;2022-07-22T04:57:16;18.60;99.90
7174;DHT22;3628;48.654;8.932;2022-07-22T04:59:42;18.90;99.90
7174;DHT22;3628;48.654;8.932;2022-07-22T05:02:08;19.00;99.90
7174;DHT22;3628;48.654;8.932;2022-07-22T05:04:33;19.10;99.90
7174;DHT22;3628;48.654;8.932;2022-07-22T05:06:59;19.10;99.90
7174;DHT22;3628;48.654;8.932;2022-07-22T05:09:25;19.10;99.90
7174;DHT22;3628;48.654;8.932;2022-07-22T05:11:50;19.20;99.90
7174;DHT22;3628;48.654;8.932;2022-07-22T05:14:16;19.30;99.90
7174;DHT22;3628;48.654;8.932;2022-07-22T05:16:42;19.30;99.90
7174;DHT22;3628;48.654;8.932;2022-07-22T05:19:07;19.40;99.90
7174;DHT22;3628;48.654;8.932;2022-07-22T05:21:33;19.50;99.90
7174;DHT22;3628;48.654;8.932;2022-07-22T05:23:59;19.60;99.90
7174;DHT22;3628;48.654;8.932;2022-07-22T05:26:25;19.80;99.90
7174;DHT22;3628;48.654;8.932;2022-07-22T05:28:53;20.00;99.90
7174;DHT22;3628;48.654;8.932;2022-07-22T05:31:19;20.10;99.90
7174;DHT22;3628;48.654;8.932;2022-07-22T05:33:45;20.10;99.90
7174;DHT22;3628;48.654;8.932;2022-07-22T05:36:10;20.20;99.90
7174;DHT22;3628;48.654;8.932;2022-07-22T05:38:36;20.20;99.90
7174;DHT22;3628;48.654;8.932;2022-07-22T05:41:02;20.10;99.90
7174;DHT22;3628;48.654;8.932;2022-07-22T05:43:28;20.10;99.90
7174;DHT22;3628;48.654;8.932;2022-07-22T05:45:54;20.20;99.90
7174;DHT22;3628;48.654;8.932;2022-07-22T05:48:19;20.40;99.90
7174;DHT22;3628;48.654;8.932;2022-07-22T05:50:45;20.50;99.90
7174;DHT22;3628;48.654;8.932;2022-07-22T05:53:11;20.40;99.90
7174;DHT22;3628;48.654;8.932;2022-07-22T05:55:36;20.20;99.90
7174;DHT22;3628;48.654;8.932;2022-07-22T05:58:02;20.00;99.90
7174;DHT22;3628;48.654;8.932;2022-07-22T06:00:27;19.90;99.90
7174;DHT22;3628;48.654;8.932;2022-07-22T06:02:53;19.90;99.90
7174;DHT22;3628;48.654;8.932;2022-07-22T06:05:19;19.70;99.90
7174;DHT22;3628;48.654;8.932;2022-07-22T06:07:45;19.60;99.90
7174;DHT22;3628;48.654;8.932;2022-07-22T06:10:11;19.60;99.90
7174;DHT22;3628;48.654;8.932;2022-07-22T06:12:36;19.60;99.90
7174;DHT22;3628;48.654;8.932;2022-07-22T06:15:03;19.70;99.90
7174;DHT22;3628;48.654;8.932;2022-07-22T06:17:28;19.80;99.90
7174;DHT22;3628;48.654;8.932;2022-07-22T06:19:54;20.00;99.90
7174;DHT22;3628;48.654;8.932;2022-07-22T06:22:20;19.80;99.90
7174;DHT22;3628;48.654;8.932;2022-07-22T06:24:45;19.90;99.90
7174;DHT22;3628;48.654;8.932;2022-07-22T06:27:11;20.00;99.90
7174;DHT22;3628;48.654;8.932;2022-07-22T06:29:37;20.20;99.90
7174;DHT22;3628;48.654;8.932;2022-07-22T06:32:03;20.30;99.90
7174;DHT22;3628;48.654;8.932;2022-07-22T06:34:28;20.40;99.90
7174;DHT22;3628;48.654;8.932;2022-07-22T06:36:54;20.50;99.90
7174;DHT22;3628;48.654;8.932;2022-07-22T06:39:20;20.80;99.90
7174;DHT22;3628;48.654;8.932;2022-07-22T06:41:46;21.10;99.90
7174;DHT22;3628;48.654;8.932;2022-07-22T06:44:12;21.20;99.90
7174;DHT22;3628;48.654;8.932;2022-07-22T06:46:38;21.30;99.90
7174;DHT22;3628;48.654;8.932;2022-07-22T06:49:03;21.50;99.90
7174;DHT22;3628;48.654;8.932;2022-07-22T06:51:29;21.40;99.90
7174;DHT22;3628;48.654;8.932;2022-07-22T06:53:55;21.40;99.90
7174;DHT22;3628;48.654;8.932;2022-07-22T06:56:20;21.60;99.90
7174;DHT22;3628;48.654;8.932;2022-07-22T06:58:46;21.60;99.90
7174;DHT22;3628;48.654;8.932;2022-07-22T07:01:12;21.70;99.90
7174;DHT22;3628;48.654;8.932;2022-07-22T07:03:37;21.80;99.90
7174;DHT22;3628;48.654;8.932;2022-07-22T07:06:06;22.20;99.90
7174;DHT22;3628;48.654;8.932;2022-07-22T07:08:31;22.40;99.90
7174;DHT22;3628;48.654;8.932;2022-07-22T07:10:57;22.40;99.90
7174;DHT22;3628;48.654;8.932;2022-07-22T07:13:23;22.50;99.90
7174;DHT22;3628;48.654;8.932;2022-07-22T07:15:48;22.70;99.90
7174;DHT22;3628;48.654;8.932;2022-07-22T07:18:14;22.80;99.90
7174;DHT22;3628;48.654;8.932;2022-07-22T07:20:39;23.00;99.90
7174;DHT22;3628;48.654;8.932;2022-07-22T07:23:05;23.20;99.90
7174;DHT22;3628;48.654;8.932;2022-07-22T07:25:31;23.50;99.90
7174;DHT22;3628;48.654;8.932;2022-07-22T07:27:57;23.70;99.90
7174;DHT22;3628;48.654;8.932;2022-07-22T07:30:22;23.90;99.90
7174;DHT22;3628;48.654;8.932;2022-07-22T07:32:48;23.90;99.90
7174;DHT22;3628;48.654;8.932;2022-07-22T07:35:14;24.00;99.90
7174;DHT22;3628;48.654;8.932;2022-07-22T07:37:39;24.00;99.90
7174;DHT22;3628;48.654;8.932;2022-07-22T07:40:06;24.30;99.90
7174;DHT22;3628;48.654;8.932;2022-07-22T07:42:32;24.50;99.90
7174;DHT22;3628;48.654;8.932;2022-07-22T07:44:58;24.70;99.90
7174;DHT22;3628;48.654;8.932;2022-07-22T07:47:23;24.90;99.90
7174;DHT22;3628;48.654;8.932;2022-07-22T07:49:49;25.10;99.90
7174;DHT22;3628;48.654;8.932;2022-07-22T07:52:16;25.20;99.90
7174;DHT22;3628;48.654;8.932;2022-07-22T07:54:43;25.20;99.90
7174;DHT22;3628;48.654;8.932;2022-07-22T07:57:10;25.40;99.90
7174;DHT22;3628;48.654;8.932;2022-07-22T07:59:37;25.60;99.90
7174;DHT22;3628;48.654;8.932;2022-07-22T08:02:03;25.50;99.90
7174;DHT22;3628;48.654;8.932;2022-07-22T08:04:30;25.60;99.90
7174;DHT22;3628;48.654;8.932;2022-07-22T08:06:55;25.70;99.90
7174;DHT22;3628;48.654;8.932;2022-07-22T08:09:21;25.80;99.90
7174;DHT22;3628;48.654;8.932;2022-07-22T08:11:47;26.00;99.90
7174;DHT22;3628;48.654;8.932;2022-07-22T08:14:13;26.10;99.90
7174;DHT22;3628;48.654;8.932;2022-07-22T08:16:38;26.30;99.90
7174;DHT22;3628;48.654;8.932;2022-07-22T08:19:04;26.40;99.90
7174;DHT22;3628;48.654;8.932;2022-07-22T08:21:30;26.50;99.90
7174;DHT22;3628;48.654;8.932;2022-07-22T08:23:55;26.70;99.90
7174;DHT22;3628;48.654;8.932;2022-07-22T08:26:21;26.80;99.90
7174;DHT22;3628;48.654;8.932;2022-07-22T08:28:47;26.80;99.90
7174;DHT22;3628;48.654;8.932;2022-07-22T08:31:12;27.00;99.90
7174;DHT22;3628;48.654;8.932;2022-07-22T08:33:38;27.10;99.90
7174;DHT22;3628;48.654;8.932;2022-07-22T08:36:04;27.00;99.90
7174;DHT22;3628;48.654;8.932;2022-07-22T08:38:30;26.80;99.90
7174;DHT22;3628;48.654;8.932;2022-07-22T08:40:56;26.90;99.90
7174;DHT22;3628;48.654;8.932;2022-07-22T08:43:23;26.90;99.90
7174;DHT22;3628;48.654;8.932;2022-07-22T08:45:49;27.00;99.90
7174;DHT22;3628;48.654;8.932;2022-07-22T08:48:14;27.30;99.90
7174;DHT22;3628;48.654;8.932;2022-07-22T08:50:41;27.60;99.90
7174;DHT22;3628;48.654;8.932;2022-07-22T08:53:14;27.70;99.90
7174;DHT22;3628;48.654;8.932;2022-07-22T08:55:47;27.80;99.90
7174;DHT22;3628;48.654;8.932;2022-07-22T08:58:13;28.00;99.90
7174;DHT22;3628;48.654;8.932;2022-07-22T09:00:40;27.80;99.90
7174;DHT22;3628;48.654;8.932;2022-07-22T09:03:23;27.60;99.90
7174;DHT22;3628;48.654;8.932;2022-07-22T09:05:51;27.80;99.90
7174;DHT22;3628;48.654;8.932;2022-07-22T09:08:18;27.90;99.90
7174;DHT22;3628;48.654;8.932;2022-07-22T09:10:44;28.20;99.90
7174;DHT22;3628;48.654;8.932;2022-07-22T09:13:10;28.50;99.90
7174;DHT22;3628;48.654;8.932;2022-07-22T09:15:39;28.60;98.50
7174;DHT22;3628;48.654;8.932;2022-07-22T09:18:07;28.70;99.90
7174;DHT22;3628;48.654;8.932;2022-07-22T09:20:34;28.90;98.90
7174;DHT22;3628;48.654;8.932;2022-07-22T09:23:01;28.90;98.80
7174;DHT22;3628;48.654;8.932;2022-07-22T09:25:32;29.20;98.20
7174;DHT22;3628;48.654;8.932;2022-07-22T09:30:49;29.30;96.90
7174;DHT22;3628;48.654;8.932;2022-07-22T09:33:16;29.60;96.00
7174;DHT22;3628;48.654;8.932;2022-07-22T09:35:42;29.60;95.90
7174;DHT22;3628;48.654;8.932;2022-07-22T09:38:10;29.80;95.70
7174;DHT22;3628;48.654;8.932;2022-07-22T09:40:44;29.90;93.80
7174;DHT22;3628;48.654;8.932;2022-07-22T09:43:19;30.20;95.00
7174;DHT22;3628;48.654;8.932;2022-07-22T09:45:53;30.30;93.20
7174;DHT22;3628;48.654;8.932;2022-07-22T09:48:20;30.50;92.60
7174;DHT22;3628;48.654;8.932;2022-07-22T09:50:47;30.50;92.10
7174;DHT22;3628;48.654;8.932;2022-07-22T09:53:15;30.70;91.90
7174;DHT22;3628;48.654;8.932;2022-07-22T09:55:40;30.90;91.80
7174;DHT22;3628;48.654;8.932;2022-07-22T09:58:06;30.80;91.10
7174;DHT22;3628;48.654;8.932;2022-07-22T10:00:37;30.70;90.40
7174;DHT22;3628;48.654;8.932;2022-07-22T10:03:05;31.00;88.70
7174;DHT22;3628;48.654;8.932;2022-07-22T10:05:34;31.10;90.20
7174;DHT22;3628;48.654;8.932;2022-07-22T10:08:02;31.30;89.10
7174;DHT22;3628;48.654;8.932;2022-07-22T10:10:29;31.50;89.50
7174;DHT22;3628;48.654;8.932;2022-07-22T10:12:57;31.60;85.90
7174;DHT22;3628;48.654;8.932;2022-07-22T10:15:24;31.70;85.50
7174;DHT22;3628;48.654;8.932;2022-07-22T10:18:05;31.80;84.10
7174;DHT22;3628;48.654;8.932;2022-07-22T10:20:32;32.00;85.10
7174;DHT22;3628;48.654;8.932;2022-07-22T10:23:04;32.00;81.80
7174;DHT22;3628;48.654;8.932;2022-07-22T10:25:58;32.10;83.20
7174;DHT22;3628;48.654;8.932;2022-07-22T10:30:52;32.50;80.30
7174;DHT22;3628;48.654;8.932;2022-07-22T10:33:20;32.50;80.00
7174;DHT22;3628;48.654;8.932;2022-07-22T10:35:53;32.50;77.90
7174;DHT22;3628;48.654;8.932;2022-07-22T10:38:19;32.50;78.80
7174;DHT22;3628;48.654;8.932;2022-07-22T10:40:56;32.20;78.00
7174;DHT22;3628;48.654;8.932;2022-07-22T10:43:26;32.30;78.20
7174;DHT22;3628;48.654;8.932;2022-07-22T10:46:00;32.60;78.10
7174;DHT22;3628;48.654;8.932;2022-07-22T10:51:17;32.90;76.10
7174;DHT22;3628;48.654;8.932;2022-07-22T10:53:58;32.90;74.90
7174;DHT22;3628;48.654;8.932;2022-07-22T10:56:25;33.00;74.60
7174;DHT22;3628;48.654;8.932;2022-07-22T10:58:56;33.00;74.70
7174;DHT22;3628;48.654;8.932;2022-07-22T11:01:30;32.50;73.40
7174;DHT22;3628;48.654;8.932;2022-07-22T11:04:06;32.60;76.00
7174;DHT22;3628;48.654;8.932;2022-07-22T11:06:33;32.90;75.80
7174;DHT22;3628;48.654;8.932;2022-07-22T11:09:01;33.10;75.10
7174;DHT22;3628;48.654;8.932;2022-07-22T11:14:00;33.60;72.90
7174;DHT22;3628;48.654;8.932;2022-07-22T11:16:27;33.60;70.20
7174;DHT22;3628;48.654;8.932;2022-07-22T11:18:57;33.40;69.20
7174;DHT22;3628;48.654;8.932;2022-07-22T11:21:28;33.20;69.60
7174;DHT22;3628;48.654;8.932;2022-07-22T11:23:56;32.80;70.30
7174;DHT22;3628;48.654;8.932;2022-07-22T11:29:03;33.00;70.00
7174;DHT22;3628;48.654;8.932;2022-07-22T11:31:29;33.10;71.00
7174;DHT22;3628;48.654;8.932;2022-07-22T11:34:09;32.90;70.80
7174;DHT22;3628;48.654;8.932;2022-07-22T11:36:38;32.50;70.00
7174;DHT22;3628;48.654;8.932;2022-07-22T11:39:04;32.60;71.40
7174;DHT22;3628;48.654;8.932;2022-07-22T11:41:30;32.60;70.00
7174;DHT22;3628;48.654;8.932;2022-07-22T11:43:56;32.30;71.40
7174;DHT22;3628;48.654;8.932;2022-07-22T11:46:22;32.60;71.40
7174;DHT22;3628;48.654;8.932;2022-07-22T11:48:51;32.10;71.30
7174;DHT22;3628;48.654;8.932;2022-07-22T11:51:17;32.00;71.20
7174;DHT22;3628;48.654;8.932;2022-07-22T11:53:43;31.80;70.90
7174;DHT22;3628;48.654;8.932;2022-07-22T11:56:09;31.50;72.30
7174;DHT22;3628;48.654;8.932;2022-07-22T12:01:06;31.80;72.40
7174;DHT22;3628;48.654;8.932;2022-07-22T12:03:37;31.70;70.80
7174;DHT22;3628;48.654;8.932;2022-07-22T12:06:09;32.00;71.80
7174;DHT22;3628;48.654;8.932;2022-07-22T12:08:43;32.30;71.40
7174;DHT22;3628;48.654;8.932;2022-07-22T12:11:11;32.60;70.80
7174;DHT22;3628;48.654;8.932;2022-07-22T12:13:44;32.90;69.60
7174;DHT22;3628;48.654;8.932;2022-07-22T12:16:36;33.20;68.30
7174;DHT22;3628;48.654;8.932;2022-07-22T12:19:13;33.40;67.00
7174;DHT22;3628;48.654;8.932;2022-07-22T12:26:51;33.90;66.10
7174;DHT22;3628;48.654;8.932;2022-07-22T12:29:25;34.10;65.00
7174;DHT22;3628;48.654;8.932;2022-07-22T12:32:00;34.30;63.90
7174;DHT22;3628;48.654;8.932;2022-07-22T12:34:46;34.10;62.70
7174;DHT22;3628;48.654;8.932;2022-07-22T12:39:53;34.70;62.50
7174;DHT22;3628;48.654;8.932;2022-07-22T12:42:18;34.90;61.50
7174;DHT22;3628;48.654;8.932;2022-07-22T12:45:16;35.00;60.60
7174;DHT22;3628;48.654;8.932;2022-07-22T12:53:09;34.70;60.90
7174;DHT22;3628;48.654;8.932;2022-07-22T12:55:40;34.70;60.40
7174;DHT22;3628;48.654;8.932;2022-07-22T12:58:07;34.80;60.50
7174;DHT22;3628;48.654;8.932;2022-07-22T13:00:36;34.90;60.60
7174;DHT22;3628;48.654;8.932;2022-07-22T13:03:02;34.70;60.50
7174;DHT22;3628;48.654;8.932;2022-07-22T13:05:28;34.70;59.80
7174;DHT22;3628;48.654;8.932;2022-07-22T13:07:54;34.60;60.70
7174;DHT22;3628;48.654;8.932;2022-07-22T13:10:22;34.60;60.50
7174;DHT22;3628;48.654;8.932;2022-07-22T13:12:47;34.70;59.80
7174;DHT22;3628;48.654;8.932;2022-07-22T13:15:13;34.80;59.70
7174;DHT22;3628;48.654;8.932;2022-07-22T13:17:40;34.80;59.30
7174;DHT22;3628;48.654;8.932;2022-07-22T13:20:08;34.70;59.40
7174;DHT22;3628;48.654;8.932;2022-07-22T13:22:34;34.80;59.70
7174;DHT22;3628;48.654;8.932;2022-07-22T13:25:00;34.90;59.90
7174;DHT22;3628;48.654;8.932;2022-07-22T13:27:25;34.60;59.80
7174;DHT22;3628;48.654;8.932;2022-07-22T13:29:51;34.20;59.30
7174;DHT22;3628;48.654;8.932;2022-07-22T13:32:17;33.90;60.50
7174;DHT22;3628;48.654;8.932;2022-07-22T13:34:43;34.00;60.80
7174;DHT22;3628;48.654;8.932;2022-07-22T13:37:08;34.30;62.20
7174;DHT22;3628;48.654;8.932;2022-07-22T13:39:34;34.60;59.80
7174;DHT22;3628;48.654;8.932;2022-07-22T13:42:00;34.70;59.00
7174;DHT22;3628;48.654;8.932;2022-07-22T13:44:26;34.80;59.50
7174;DHT22;3628;48.654;8.932;2022-07-22T13:46:51;34.60;58.10
7174;DHT22;3628;48.654;8.932;2022-07-22T13:49:17;34.50;59.70
7174;DHT22;3628;48.654;8.932;2022-07-22T13:51:43;34.70;59.50
7174;DHT22;3628;48.654;8.932;2022-07-22T13:54:08;35.00;58.30
7174;DHT22;3628;48.654;8.932;2022-07-22T13:56:34;35.30;57.50
7174;DHT22;3628;48.654;8.932;2022-07-22T13:59:00;35.60;58.40
7174;DHT22;3628;48.654;8.932;2022-07-22T14:01:26;35.90;56.10
7174;DHT22;3628;48.654;8.932;2022-07-22T14:03:52;35.90;55.30
7174;DHT22;3628;48.654;8.932;2022-07-22T14:06:17;35.90;54.40
7174;DHT22;3628;48.654;8.932;2022-07-22T14:08:43;36.00;53.90
7174;DHT22;3628;48.654;8.932;2022-07-22T14:11:09;35.90;54.70
7174;DHT22;3628;48.654;8.932;2022-07-22T14:13:34;35.80;54.00
7174;DHT22;3628;48.654;8.932;2022-07-22T14:16:00;35.80;54.30
7174;DHT22;3628;48.654;8.932;2022-07-22T14:18:46;36.00;54.00
7174;DHT22;3628;48.654;8.932;2022-07-22T14:21:12;36.10;55.00
7174;DHT22;3628;48.654;8.932;2022-07-22T14:23:37;36.20;53.60
7174;DHT22;3628;48.654;8.932;2022-07-22T14:26:03;36.10;55.00
7174;DHT22;3628;48.654;8.932;2022-07-22T14:28:29;35.60;54.00
7174;DHT22;3628;48.654;8.932;2022-07-22T14:30:55;35.80;54.60
7174;DHT22;3628;48.654;8.932;2022-07-22T14:33:21;35.90;54.40
7174;DHT22;3628;48.654;8.932;2022-07-22T14:35:46;36.00;54.20
7174;DHT22;3628;48.654;8.932;2022-07-22T14:38:12;36.10;54.00
7174;DHT22;3628;48.654;8.932;2022-07-22T14:40:38;36.00;53.70
7174;DHT22;3628;48.654;8.932;2022-07-22T14:43:04;36.00;53.60
7174;DHT22;3628;48.654;8.932;2022-07-22T14:45:29;35.90;53.60
7174;DHT22;3628;48.654;8.932;2022-07-22T14:47:55;36.00;54.00
7174;DHT22;3628;48.654;8.932;2022-07-22T14:50:20;35.90;54.40
7174;DHT22;3628;48.654;8.932;2022-07-22T14:52:46;35.80;53.50
7174;DHT22;3628;48.654;8.932;2022-07-22T14:55:12;35.50;52.90
7174;DHT22;3628;48.654;8.932;2022-07-22T14:57:38;35.60;53.80
7174;DHT22;3628;48.654;8.932;2022-07-22T15:00:04;35.70;53.70
7174;DHT22;3628;48.654;8.932;2022-07-22T15:02:29;35.70;53.70
7174;DHT22;3628;48.654;8.932;2022-07-22T15:04:55;35.70;53.70
7174;DHT22;3628;48.654;8.932;2022-07-22T15:07:20;35.50;53.50
7174;DHT22;3628;48.654;8.932;2022-07-22T15:09:46;35.60;53.30
7174;DHT22;3628;48.654;8.932;2022-07-22T15:12:12;35.60;53.30
7174;DHT22;3628;48.654;8.932;2022-07-22T15:14:37;35.70;53.70
7174;DHT22;3628;48.654;8.932;2022-07-22T15:17:03;35.70;54.10
7174;DHT22;3628;48.654;8.932;2022-07-22T15:19:29;35.40;53.60
7174;DHT22;3628;48.654;8.932;2022-07-22T15:21:54;35.00;53.80
7174;DHT22;3628;48.654;8.932;2022-07-22T15:24:20;35.00;54.40
7174;DHT22;3628;48.654;8.932;2022-07-22T15:26:46;35.20;54.80
7174;DHT22;3628;48.654;8.932;2022-07-22T15:29:11;35.60;54.70
7174;DHT22;3628;48.654;8.932;2022-07-22T15:31:37;35.90;54.00
7174;DHT22;3628;48.654;8.932;2022-07-22T15:34:02;35.90;53.90
7174;DHT22;3628;48.654;8.932;2022-07-22T15:36:28;36.10;53.70
7174;DHT22;3628;48.654;8.932;2022-07-22T15:38:54;36.20;53.60
7174;DHT22;3628;48.654;8.932;2022-07-22T15:41:20;36.20;53.60
7174;DHT22;3628;48.654;8.932;2022-07-22T15:43:46;36.30;53.10
7174;DHT22;3628;48.654;8.932;2022-07-22T15:46:11;36.00;52.40
7174;DHT22;3628;48.654;8.932;2022-07-22T15:48:38;35.70;53.80
7174;DHT22;3628;48.654;8.932;2022-07-22T15:51:08;35.20;53.40
7174;DHT22;3628;48.654;8.932;2022-07-22T15:53:34;35.20;55.10
7174;DHT22;3628;48.654;8.932;2022-07-22T15:56:00;35.10;53.50
7174;DHT22;3628;48.654;8.932;2022-07-22T15:58:26;35.20;54.20
7174;DHT22;3628;48.654;8.932;2022-07-22T16:01:10;35.50;54.50
7174;DHT22;3628;48.654;8.932;2022-07-22T16:03:35;35.60;53.80
7174;DHT22;3628;48.654;8.932;2022-07-22T16:06:01;35.50;53.40
7174;DHT22;3628;48.654;8.932;2022-07-22T16:08:27;35.30;53.80
7174;DHT22;3628;48.654;8.932;2022-07-22T16:10:52;35.30;54.50
7174;DHT22;3628;48.654;8.932;2022-07-22T16:13:19;35.40;54.40
7174;DHT22;3628;48.654;8.932;2022-07-22T16:15:45;35.70;54.10
7174;DHT22;3628;48.654;8.932;2022-07-22T16:18:11;36.10;53.90
7174;DHT22;3628;48.654;8.932;2022-07-22T16:20:40;36.10;53.10
7174;DHT22;3628;48.654;8.932;2022-07-22T16:23:06;36.10;53.00
7174;DHT22;3628;48.654;8.932;2022-07-22T16:25:32;36.00;52.60
7174;DHT22;3628;48.654;8.932;2022-07-22T16:27:57;35.90;52.50